createdAt,value
2023-03-29T00:00:25.528Z,1008.65
2023-03-29T00:05:25.451Z,1008.50
2023-03-29T00:10:25.389Z,1008.63
2023-03-29T00:15:25.331Z,1008.43
2023-03-29T00:20:25.265Z,1008.30
2023-03-29T00:25:25.183Z,1008.35
2023-03-29T00:30:25.138Z,1008.35
2023-03-29T00:35:25.090Z,1008.30
2023-03-29T00:40:25.015Z,1008.30
2023-03-29T00:45:24.927Z,1008.20
2023-03-29T00:50:24.868Z,1008.21
2023-03-29T00:55:24.815Z,1008.03
2023-03-29T01:00:24.754Z,1008.03
2023-03-29T01:05:24.672Z,1008.04
2023-03-29T01:10:24.622Z,1008.02
2023-03-29T01:15:24.541Z,1007.90
2023-03-29T01:20:24.476Z,1007.73
2023-03-29T01:25:24.409Z,1007.65
2023-03-29T01:30:24.350Z,1007.62
2023-03-29T01:35:24.287Z,1007.57
2023-03-29T01:40:24.240Z,1007.54
2023-03-29T01:45:24.154Z,1007.50
2023-03-29T01:50:24.088Z,1007.44
2023-03-29T01:55:24.029Z,1007.35
2023-03-29T02:00:23.977Z,1007.24
2023-03-29T02:05:23.900Z,1007.34
2023-03-29T02:10:23.828Z,1007.20
2023-03-29T02:15:23.770Z,1007.21
2023-03-29T02:20:23.697Z,1007.10
2023-03-29T02:25:23.631Z,1007.13
2023-03-29T02:30:23.579Z,1006.93
2023-03-29T02:35:23.498Z,1006.94
2023-03-29T02:40:23.441Z,1006.80
2023-03-29T02:45:23.380Z,1006.71
2023-03-29T02:50:23.333Z,1006.69
2023-03-29T02:55:23.246Z,1006.64
2023-03-29T03:00:23.240Z,1006.58
2023-03-29T03:05:23.114Z,1006.42
2023-03-29T03:10:23.055Z,1006.22
2023-03-29T03:15:22.993Z,1006.19
2023-03-29T03:20:22.919Z,1006.18
2023-03-29T03:25:22.844Z,1006.20
2023-03-29T03:30:22.793Z,1006.17
2023-03-29T03:35:22.733Z,1006.09
2023-03-29T03:40:22.678Z,1006.12
2023-03-29T03:45:22.598Z,1006.14
2023-03-29T03:50:22.533Z,1006.07
2023-03-29T03:55:22.451Z,1006.07
2023-03-29T04:00:22.396Z,1006.10
2023-03-29T04:05:22.324Z,1006.08
2023-03-29T04:10:22.263Z,1006.01
2023-03-29T04:15:22.212Z,1006.09
2023-03-29T04:20:22.132Z,1006.00
2023-03-29T04:25:22.063Z,1005.97
2023-03-29T04:30:22.016Z,1005.96
2023-03-29T04:35:21.942Z,1005.91
2023-03-29T04:40:21.884Z,1005.93
2023-03-29T04:45:21.886Z,1005.89
2023-03-29T04:50:21.753Z,1005.81
2023-03-29T04:55:21.678Z,1005.91
2023-03-29T05:00:21.618Z,1005.80
2023-03-29T05:05:21.542Z,1005.74
2023-03-29T05:10:21.485Z,1005.68
2023-03-29T05:15:21.408Z,1005.53
2023-03-29T05:20:21.343Z,1005.54
2023-03-29T05:25:21.278Z,1005.35
2023-03-29T05:30:21.218Z,1005.40
2023-03-29T05:35:21.150Z,1005.35
2023-03-29T05:40:21.081Z,1005.33
2023-03-29T05:45:21.018Z,1005.28
2023-03-29T05:50:20.953Z,1005.35
2023-03-29T05:55:20.890Z,1005.40
2023-03-29T06:00:20.818Z,1005.47
2023-03-29T06:05:20.750Z,1005.54
2023-03-29T06:10:20.690Z,1005.50
2023-03-29T06:15:20.622Z,1005.57
2023-03-29T06:20:20.571Z,1005.59
2023-03-29T06:25:20.485Z,1005.57
2023-03-29T06:30:20.427Z,1005.49
2023-03-29T06:35:20.363Z,1005.48
2023-03-29T06:40:20.300Z,1005.41
2023-03-29T06:45:22.426Z,1005.51
2023-03-29T06:50:20.188Z,1005.46
2023-03-29T06:55:20.089Z,1005.40
2023-03-29T07:00:20.037Z,1005.40
2023-03-29T07:05:19.966Z,1005.44
2023-03-29T07:10:19.910Z,1005.39
2023-03-29T07:15:19.818Z,1005.22
2023-03-29T07:20:19.789Z,1005.29
2023-03-29T07:25:19.683Z,1005.38
2023-03-29T07:30:19.629Z,1005.33
2023-03-29T07:35:19.556Z,1005.34
2023-03-29T07:40:19.499Z,1005.46
2023-03-29T07:45:19.423Z,1005.44
2023-03-29T07:50:20.349Z,1005.42
2023-03-29T07:55:19.290Z,1005.45
2023-03-29T08:00:19.350Z,1005.44
2023-03-29T08:05:29.184Z,1005.45
2023-03-29T08:10:20.116Z,1005.54
2023-03-29T08:15:19.056Z,1005.58
2023-03-29T08:20:18.963Z,1005.51
2023-03-29T08:25:18.921Z,1005.50
2023-03-29T08:30:18.871Z,1005.41
2023-03-29T08:35:18.782Z,1005.42
2023-03-29T08:40:18.702Z,1005.37
2023-03-29T08:45:18.643Z,1005.33
2023-03-29T08:50:18.568Z,1005.38
2023-03-29T08:55:18.491Z,1005.36
2023-03-29T09:00:18.637Z,1005.22
2023-03-29T09:05:18.391Z,1005.18
2023-03-29T09:10:18.378Z,1005.14
2023-03-29T09:15:18.228Z,1005.13
2023-03-29T09:20:18.288Z,1005.05
2023-03-29T09:25:18.089Z,1005.06
2023-03-29T09:30:18.076Z,1005.01
2023-03-29T09:35:17.965Z,1005.01
2023-03-29T09:40:17.937Z,1004.99
2023-03-29T09:45:17.831Z,1005.01
2023-03-29T09:50:30.064Z,1004.93
2023-03-29T09:55:18.703Z,1004.97
2023-03-29T10:00:17.654Z,1004.84
2023-03-29T10:05:17.556Z,1004.86
2023-03-29T10:10:17.509Z,1004.87
2023-03-29T10:15:28.767Z,1004.69
2023-03-29T10:20:18.376Z,1004.70
2023-03-29T10:25:17.291Z,1004.72
2023-03-29T10:30:17.236Z,1004.55
2023-03-29T10:35:17.179Z,1004.43
2023-03-29T10:40:17.103Z,1004.48
2023-03-29T10:45:17.030Z,1004.43
2023-03-29T10:50:16.962Z,1004.42
2023-03-29T10:55:16.895Z,1004.39
2023-03-29T11:00:16.836Z,1004.31
2023-03-29T11:05:16.783Z,1004.26
2023-03-29T11:10:16.693Z,1004.28
2023-03-29T11:15:16.643Z,1004.10
2023-03-29T11:20:16.596Z,1004.04
2023-03-29T11:25:16.491Z,1004.09
2023-03-29T11:30:16.434Z,1003.91
2023-03-29T11:35:16.360Z,1003.88
2023-03-29T11:40:16.308Z,1003.94
2023-03-29T11:45:16.223Z,1003.89
2023-03-29T11:50:16.169Z,1003.77
2023-03-29T11:55:16.099Z,1003.80
2023-03-29T12:00:16.019Z,1003.69
2023-03-29T12:05:15.968Z,1003.62
2023-03-29T12:10:15.890Z,1003.57
2023-03-29T12:15:15.836Z,1003.44
2023-03-29T12:20:15.775Z,1003.49
2023-03-29T12:25:17.789Z,1003.40
2023-03-29T12:30:15.635Z,1003.27
2023-03-29T12:35:15.560Z,1003.27
2023-03-29T12:40:15.560Z,1003.19
2023-03-29T12:45:15.445Z,1003.13
2023-03-29T12:50:15.371Z,1003.02
2023-03-29T12:55:15.301Z,1003.05
2023-03-29T13:00:15.242Z,1003.12
2023-03-29T13:05:15.251Z,1003.08
2023-03-29T13:10:15.119Z,1002.95
2023-03-29T13:15:15.044Z,1002.86
2023-03-29T13:20:14.983Z,1002.88
2023-03-29T13:25:14.923Z,1002.64
2023-03-29T13:30:14.867Z,1002.64
2023-03-29T13:35:14.777Z,1002.70
2023-03-29T13:40:14.716Z,1002.68
2023-03-29T13:45:14.700Z,1002.68
2023-03-29T13:50:14.580Z,1002.59
2023-03-29T13:55:14.515Z,1002.55
2023-03-29T14:00:14.456Z,1002.47
2023-03-29T14:05:14.392Z,1002.39
2023-03-29T14:10:14.330Z,1002.43
2023-03-29T14:15:14.264Z,1002.39
2023-03-29T14:20:14.361Z,1002.32
2023-03-29T14:25:14.117Z,1002.48
2023-03-29T14:30:14.057Z,1002.28
2023-03-29T14:35:13.995Z,1002.36
2023-03-29T14:40:13.927Z,1002.33
2023-03-29T14:45:13.858Z,1002.26
2023-03-29T14:50:13.799Z,1002.21
2023-03-29T14:55:13.724Z,1002.20
2023-03-29T15:00:13.673Z,1002.24
2023-03-29T15:05:13.599Z,1002.11
2023-03-29T15:10:13.530Z,1002.15
2023-03-29T15:15:13.470Z,1002.15
2023-03-29T15:20:13.404Z,1002.07
2023-03-29T15:25:13.332Z,1001.98
2023-03-29T15:30:13.267Z,1002.00
2023-03-29T15:35:13.194Z,1001.94
2023-03-29T15:40:15.078Z,1001.79
2023-03-29T15:45:13.063Z,1001.77
2023-03-29T15:50:13.033Z,1001.71
2023-03-29T15:55:12.947Z,1001.69
2023-03-29T16:00:12.863Z,1001.64
2023-03-29T16:05:12.797Z,1001.62
2023-03-29T16:10:12.729Z,1001.63
2023-03-29T16:15:13.176Z,1001.52
2023-03-29T16:20:12.596Z,1001.44
2023-03-29T16:25:12.521Z,1001.56
2023-03-29T16:30:12.461Z,1001.43
2023-03-29T16:35:12.394Z,1001.50
2023-03-29T16:40:12.319Z,1001.42
2023-03-29T16:45:12.248Z,1001.48
2023-03-29T16:50:12.211Z,1001.36
2023-03-29T16:55:12.172Z,1001.35
2023-03-29T17:00:12.108Z,1001.39
2023-03-29T17:05:12.004Z,1001.31
2023-03-29T17:10:11.938Z,1001.34
2023-03-29T17:15:11.865Z,1001.34
2023-03-29T17:20:11.814Z,1001.35
2023-03-29T17:25:11.705Z,1001.28
2023-03-29T17:30:11.653Z,1001.34
2023-03-29T17:35:11.591Z,1001.23
2023-03-29T17:40:11.520Z,1001.18
2023-03-29T17:45:11.468Z,1001.28
2023-03-29T17:50:11.475Z,1001.30
2023-03-29T17:55:11.331Z,1001.40
2023-03-29T18:00:11.249Z,1001.35
2023-03-29T18:05:11.169Z,1001.46
2023-03-29T18:10:11.156Z,1001.57
2023-03-29T18:15:11.035Z,1001.46
2023-03-29T18:20:10.987Z,1001.54
2023-03-29T18:25:10.953Z,1001.58
2023-03-29T18:30:10.856Z,1001.57
2023-03-29T18:35:10.780Z,1001.50
2023-03-29T18:40:10.732Z,1001.64
2023-03-29T18:45:10.649Z,1001.69
2023-03-29T18:50:10.583Z,1001.77
2023-03-29T18:55:10.586Z,1001.80
2023-03-29T19:00:10.453Z,1001.76
2023-03-29T19:05:10.391Z,1001.69
2023-03-29T19:10:10.348Z,1001.77
2023-03-29T19:15:10.273Z,1001.77
2023-03-29T19:20:10.218Z,1001.86
2023-03-29T19:25:10.159Z,1001.77
2023-03-29T19:30:10.070Z,1001.70
2023-03-29T19:35:09.997Z,1001.73
2023-03-29T19:40:09.928Z,1001.56
2023-03-29T19:45:09.897Z,1001.61
2023-03-29T19:50:09.818Z,1001.58
2023-03-29T19:55:09.735Z,1001.53
2023-03-29T20:00:09.760Z,1001.53
2023-03-29T20:05:09.602Z,1001.42
2023-03-29T20:10:09.530Z,1001.46
2023-03-29T20:15:09.457Z,1001.35
2023-03-29T20:20:09.412Z,1001.34
2023-03-29T20:25:09.363Z,1001.24
2023-03-29T20:30:09.282Z,1001.20
2023-03-29T20:35:09.248Z,1001.15
2023-03-29T20:40:09.170Z,1001.12
2023-03-29T20:45:09.108Z,1001.12
2023-03-29T20:50:09.018Z,1000.92
2023-03-29T20:55:08.942Z,1000.82
2023-03-29T21:00:08.880Z,1000.83
2023-03-29T21:05:08.830Z,1000.68
2023-03-29T21:10:08.747Z,1000.60
2023-03-29T21:15:08.686Z,1000.54
2023-03-29T21:20:08.610Z,1000.57
2023-03-29T21:25:08.558Z,1000.61
2023-03-29T21:30:08.485Z,1000.50
2023-03-29T21:35:08.425Z,1000.38
2023-03-29T21:40:08.354Z,1000.34
2023-03-29T21:45:08.309Z,1000.28
2023-03-29T21:50:08.224Z,1000.28
2023-03-29T21:55:08.158Z,1000.22
2023-03-29T22:00:08.115Z,1000.15
2023-03-29T22:05:08.033Z,1000.25
2023-03-29T22:10:07.984Z,1000.28
2023-03-29T22:15:07.900Z,1000.16
2023-03-29T22:20:07.830Z,1000.10
2023-03-29T22:25:07.776Z,1000.08
2023-03-29T22:30:07.699Z,1000.08
2023-03-29T22:35:07.634Z,999.95
2023-03-29T22:40:07.558Z,1000.08
2023-03-29T22:45:07.518Z,1000.07
2023-03-29T22:50:07.436Z,1000.05
2023-03-29T22:55:07.386Z,1000.00
2023-03-29T23:00:07.296Z,999.98
2023-03-29T23:05:07.229Z,999.95
2023-03-29T23:10:07.154Z,999.87
2023-03-29T23:15:07.091Z,999.85
2023-03-29T23:20:07.122Z,999.91
2023-03-29T23:25:06.963Z,999.80
2023-03-29T23:30:06.882Z,999.85
2023-03-29T23:35:06.844Z,999.71
2023-03-29T23:40:06.770Z,999.74
2023-03-29T23:45:06.687Z,999.60
2023-03-29T23:50:06.614Z,999.72
2023-03-29T23:55:06.558Z,999.63
